Time;durP1;ratioP1;P1;durP2;ratioP2;P2;SDS_P1;SDS_P2;PMS_P1;PMS_P2;Temp;Humidity;BMP_temperature;BMP_pressure;BME280_temperature;BME280_humidity;BME280_pressure;Samples;Min_cycle;Max_cycle;Signal;HPM_P1;HPM_P2
2021/12/31 00:00:29;;;;;;;4.72;4.28;;;12.30;99.90;;;;;;4946846;29;20689;-65
2021/12/31 00:02:58;;;;;;;6.00;4.00;;;12.30;99.90;;;;;;4947261;29;20208;-63
2021/12/31 00:05:26;;;;;;;6.93;4.45;;;12.30;99.90;;;;;;4938708;29;20291;-63
2021/12/31 00:07:54;;;;;;;6.28;4.30;;;12.30;99.90;;;;;;4934895;29;20275;-63
2021/12/31 00:10:21;;;;;;;5.60;3.97;;;12.30;99.90;;;;;;4934802;29;20306;-63
2021/12/31 00:12:49;;;;;;;4.05;3.30;;;12.30;99.90;;;;;;4939276;28;20709;-64
2021/12/31 00:15:19;;;;;;;7.22;4.75;;;12.30;99.90;;;;;;4934944;29;20632;-63
2021/12/31 00:17:47;;;;;;;5.38;3.78;;;12.30;99.90;;;;;;4952985;29;20208;-62
2021/12/31 00:20:18;;;;;;;4.13;3.40;;;12.30;99.90;;;;;;4952585;29;20306;-61
2021/12/31 00:23:01;;;;;;;3.70;3.30;;;12.30;99.90;;;;;;4952356;29;20266;-61
2021/12/31 00:25:30;;;;;;;4.75;3.22;;;12.30;99.90;;;;;;4952818;29;20290;-61
2021/12/31 00:27:58;;;;;;;6.07;3.97;;;12.30;99.90;;;;;;4952500;29;20712;-61
2021/12/31 00:30:27;;;;;;;5.40;4.60;;;12.30;99.90;;;;;;4952161;28;20323;-60
2021/12/31 00:32:56;;;;;;;4.05;3.65;;;12.30;99.90;;;;;;4952427;29;20209;-61
2021/12/31 00:35:27;;;;;;;4.80;3.85;;;12.30;99.90;;;;;;4934861;29;20204;-61
2021/12/31 00:37:55;;;;;;;3.65;3.35;;;12.20;99.90;;;;;;4939169;28;20680;-61
2021/12/31 00:40:24;;;;;;;5.10;3.45;;;12.20;99.90;;;;;;4949011;29;20231;-60
2021/12/31 00:42:51;;;;;;;6.15;3.38;;;12.20;99.90;;;;;;4937896;28;20231;-62
2021/12/31 00:45:21;;;;;;;3.65;3.10;;;12.20;99.90;;;;;;4937354;29;20648;-61
2021/12/31 00:47:50;;;;;;;4.32;3.90;;;12.30;99.90;;;;;;4935126;29;20223;-61
2021/12/31 00:50:19;;;;;;;5.13;2.92;;;12.30;99.90;;;;;;4934533;29;20740;-61
2021/12/31 00:52:47;;;;;;;4.85;3.03;;;12.40;99.90;;;;;;4933958;29;20224;-61
2021/12/31 00:55:15;;;;;;;3.25;2.70;;;12.40;99.90;;;;;;4934360;29;20231;-60
2021/12/31 00:57:43;;;;;;;2.92;2.67;;;12.40;99.90;;;;;;4934184;29;20232;-61
2021/12/31 01:00:14;;;;;;;3.75;2.20;;;12.40;99.90;;;;;;4934015;29;20259;-61
2021/12/31 01:02:43;;;;;;;2.10;1.90;;;12.40;99.90;;;;;;4933727;29;20204;-61
2021/12/31 01:05:13;;;;;;;3.70;2.67;;;12.40;99.90;;;;;;4934012;29;20207;-62
2021/12/31 01:07:42;;;;;;;2.38;2.10;;;12.40;99.90;;;;;;4934087;29;20720;-61
2021/12/31 01:10:13;;;;;;;5.13;2.20;;;12.40;99.90;;;;;;4949034;23;20272;-64
2021/12/31 01:12:41;;;;;;;3.40;2.25;;;12.50;99.90;;;;;;4925645;29;20248;-63
2021/12/31 01:15:12;;;;;;;3.30;2.30;;;12.50;99.90;;;;;;4928812;29;20295;-64
2021/12/31 01:18:04;;;;;;;5.00;1.92;;;12.50;99.90;;;;;;4936603;29;20255;-64
2021/12/31 01:20:34;;;;;;;4.32;2.50;;;12.50;99.90;;;;;;4936099;29;20237;-64
2021/12/31 01:23:02;;;;;;;8.70;3.72;;;12.60;99.90;;;;;;4935973;29;20266;-64
2021/12/31 01:25:30;;;;;;;4.70;2.60;;;12.60;99.90;;;;;;4936549;29;20216;-63
2021/12/31 01:27:59;;;;;;;3.63;1.65;;;12.60;99.90;;;;;;4935541;29;20695;-64
2021/12/31 01:30:27;;;;;;;2.85;1.83;;;12.60;99.90;;;;;;4934283;29;20712;-63
2021/12/31 01:32:55;;;;;;;3.72;1.77;;;12.50;99.90;;;;;;4934403;29;20224;-63
2021/12/31 01:35:23;;;;;;;3.00;2.00;;;12.50;99.90;;;;;;4934489;29;20200;-63
2021/12/31 01:37:53;;;;;;;2.83;1.90;;;12.50;99.90;;;;;;4934858;29;20235;-64
2021/12/31 01:40:20;;;;;;;2.00;1.77;;;12.40;99.90;;;;;;4931643;29;20267;-64
2021/12/31 01:42:48;;;;;;;5.45;2.60;;;12.40;99.90;;;;;;4941370;29;20281;-64
2021/12/31 01:45:20;;;;;;;3.15;2.78;;;12.40;99.90;;;;;;4953377;29;20786;-64
2021/12/31 01:48:04;;;;;;;6.95;2.53;;;12.50;99.90;;;;;;4953553;29;20199;-64
2021/12/31 01:50:33;;;;;;;6.80;2.63;;;12.40;99.90;;;;;;4952372;28;20238;-64
2021/12/31 01:53:02;;;;;;;4.75;2.58;;;12.40;99.90;;;;;;4934877;29;20228;-63
2021/12/31 01:55:32;;;;;;;4.93;2.35;;;12.30;99.90;;;;;;4934254;29;20282;-64
2021/12/31 01:58:02;;;;;;;5.53;2.50;;;12.40;99.90;;;;;;4934182;29;20228;-63
2021/12/31 02:00:30;;;;;;;4.07;2.22;;;12.40;99.90;;;;;;4933868;29;20228;-64
2021/12/31 02:03:00;;;;;;;3.70;2.42;;;12.40;99.90;;;;;;4933838;29;20236;-64
2021/12/31 02:05:28;;;;;;;5.82;2.83;;;12.40;99.90;;;;;;4934290;29;20270;-64
2021/12/31 02:07:56;;;;;;;4.57;2.58;;;12.40;99.90;;;;;;4934311;29;20199;-64
2021/12/31 02:10:26;;;;;;;6.43;2.80;;;12.50;99.90;;;;;;4930453;29;20272;-64
2021/12/31 02:12:55;;;;;;;5.65;2.53;;;12.50;99.90;;;;;;4942268;29;20623;-64
2021/12/31 02:15:24;;;;;;;4.72;2.38;;;12.50;99.90;;;;;;4953095;29;20283;-65
2021/12/31 02:17:53;;;;;;;6.32;2.60;;;12.50;99.90;;;;;;4953228;29;20287;-64
2021/12/31 02:20:23;;;;;;;4.10;2.60;;;12.50;99.90;;;;;;4952972;28;20317;-64
2021/12/31 02:22:54;;;;;;;3.92;2.30;;;12.50;99.90;;;;;;4952843;29;20282;-66
2021/12/31 02:25:25;;;;;;;6.07;2.42;;;12.50;99.90;;;;;;4953050;29;20222;-64
2021/12/31 02:27:53;;;;;;;5.05;2.70;;;12.50;99.90;;;;;;4953055;29;20191;-64
2021/12/31 02:30:21;;;;;;;5.53;2.70;;;12.50;99.90;;;;;;4952851;28;20251;-65
2021/12/31 02:32:48;;;;;;;5.85;2.67;;;12.50;99.90;;;;;;4952699;29;20235;-64
2021/12/31 02:35:17;;;;;;;6.28;2.75;;;12.50;99.90;;;;;;4952891;29;20192;-64
2021/12/31 02:37:47;;;;;;;4.43;2.63;;;12.50;99.90;;;;;;4952856;29;20211;-64
2021/12/31 02:40:17;;;;;;;5.97;2.85;;;12.50;99.90;;;;;;4950444;28;20302;-64
2021/12/31 02:42:45;;;;;;;5.40;2.75;;;12.50;99.90;;;;;;4942248;29;20255;-64
2021/12/31 02:45:14;;;;;;;4.50;3.28;;;12.40;99.90;;;;;;4952850;29;20251;-65
2021/12/31 02:47:45;;;;;;;5.65;2.92;;;12.40;99.90;;;;;;4952876;29;20199;-63
2021/12/31 02:50:15;;;;;;;3.58;2.60;;;12.40;99.90;;;;;;4952717;28;20227;-64
2021/12/31 02:52:44;;;;;;;4.63;2.33;;;12.50;99.90;;;;;;4952656;29;20307;-64
2021/12/31 02:55:14;;;;;;;7.72;2.58;;;12.50;99.90;;;;;;4952791;29;20286;-64
2021/12/31 02:57:43;;;;;;;5.28;2.60;;;12.60;99.90;;;;;;4944944;29;20837;-64
2021/12/31 03:00:12;;;;;;;7.30;2.80;;;12.60;99.90;;;;;;4933303;29;20275;-64
2021/12/31 03:02:42;;;;;;;5.10;2.33;;;12.60;99.90;;;;;;4936476;29;20231;-64
2021/12/31 03:05:10;;;;;;;5.93;2.42;;;12.60;99.90;;;;;;4937332;29;20247;-65
2021/12/31 03:07:41;;;;;;;6.68;3.20;;;12.60;99.90;;;;;;4937287;29;20204;-65
2021/12/31 03:10:10;;;;;;;6.00;2.65;;;12.60;99.90;;;;;;4935880;29;20644;-64
2021/12/31 03:12:41;;;;;;;5.65;2.67;;;12.50;99.90;;;;;;4941273;29;20231;-64
2021/12/31 03:15:11;;;;;;;8.07;2.83;;;12.60;99.90;;;;;;4956076;29;20224;-64
2021/12/31 03:17:41;;;;;;;5.13;2.92;;;12.50;99.90;;;;;;4955920;29;20242;-64
2021/12/31 03:20:12;;;;;;;7.65;2.80;;;12.40;99.90;;;;;;4955665;28;20257;-64
2021/12/31 03:22:41;;;;;;;5.13;2.60;;;12.50;99.90;;;;;;4955844;29;20231;-64
2021/12/31 03:25:10;;;;;;;3.78;1.98;;;12.60;99.90;;;;;;4956004;29;20223;-62
2021/12/31 03:27:40;;;;;;;4.80;2.30;;;12.70;99.90;;;;;;4956009;29;20227;-62
2021/12/31 03:30:10;;;;;;;2.60;2.28;;;12.80;99.90;;;;;;4955440;28;20638;-63
2021/12/31 03:32:38;;;;;;;4.60;2.15;;;12.90;99.90;;;;;;4955488;29;20203;-62
2021/12/31 03:35:07;;;;;;;4.78;2.25;;;12.90;99.90;;;;;;4955827;29;20226;-62
2021/12/31 03:37:35;;;;;;;5.07;2.15;;;12.90;99.90;;;;;;4956117;29;20664;-65
2021/12/31 03:40:03;;;;;;;7.13;2.40;;;12.90;99.90;;;;;;4955009;28;20251;-65
2021/12/31 03:42:31;;;;;;;2.58;1.80;;;12.70;99.90;;;;;;4944035;29;20732;-64
2021/12/31 03:45:01;;;;;;;5.75;2.40;;;12.70;99.90;;;;;;4954862;29;20727;-65
2021/12/31 03:47:29;;;;;;;4.53;2.35;;;12.80;99.90;;;;;;4955431;29;20559;-65
2021/12/31 03:49:57;;;;;;;4.53;2.60;;;12.80;99.90;;;;;;4955305;28;20247;-65
2021/12/31 03:52:25;;;;;;;8.52;2.50;;;12.90;99.90;;;;;;4955002;29;20291;-61
2021/12/31 03:54:52;;;;;;;4.10;2.70;;;12.80;99.90;;;;;;4955505;29;20380;-62
2021/12/31 03:57:20;;;;;;;5.82;3.05;;;12.80;99.90;;;;;;4955141;29;20291;-61
2021/12/31 03:59:48;;;;;;;4.70;2.85;;;12.70;99.90;;;;;;4955102;28;20306;-62
2021/12/31 04:02:17;;;;;;;5.20;2.45;;;12.70;99.90;;;;;;4954679;29;20223;-62
2021/12/31 04:04:45;;;;;;;4.65;2.55;;;12.70;99.90;;;;;;4932345;29;20230;-62
2021/12/31 04:07:13;;;;;;;4.65;3.00;;;12.60;99.90;;;;;;4916843;29;20611;-62
2021/12/31 04:09:41;;;;;;;6.82;3.05;;;12.40;99.90;;;;;;4916896;29;20237;-61
2021/12/31 04:12:09;;;;;;;4.55;2.70;;;12.40;99.90;;;;;;4941504;29;20586;-62
2021/12/31 04:14:37;;;;;;;4.38;2.90;;;12.50;99.90;;;;;;4950833;29;20199;-61
2021/12/31 04:17:05;;;;;;;5.80;3.63;;;12.50;99.90;;;;;;4954674;29;20961;-62
2021/12/31 04:19:35;;;;;;;5.32;3.00;;;12.50;99.90;;;;;;4954731;28;20294;-62
2021/12/31 04:22:03;;;;;;;7.60;2.92;;;12.60;99.90;;;;;;4954561;29;20233;-64
2021/12/31 04:24:52;;;;;;;6.13;2.90;;;12.60;99.90;;;;;;4954733;29;20282;-62
2021/12/31 04:27:19;;;;;;;2.75;2.47;;;12.60;99.90;;;;;;4954836;29;20227;-62
2021/12/31 04:29:52;;;;;;;3.95;2.80;;;12.60;99.90;;;;;;4954645;28;20306;-61
2021/12/31 04:32:21;;;;;;;5.53;3.00;;;12.60;99.90;;;;;;4954502;29;20203;-62
2021/12/31 04:34:50;;;;;;;7.18;2.63;;;12.60;99.90;;;;;;4954531;29;20234;-61
2021/12/31 04:37:18;;;;;;;4.70;3.22;;;12.50;99.90;;;;;;4954654;29;20293;-62
2021/12/31 04:39:46;;;;;;;5.28;3.25;;;12.50;99.90;;;;;;4954581;28;20313;-62
2021/12/31 04:42:14;;;;;;;6.10;3.10;;;12.40;99.90;;;;;;4944031;29;20287;-62
2021/12/31 04:44:42;;;;;;;3.88;2.78;;;12.40;99.90;;;;;;4951379;29;20282;-62
2021/12/31 04:47:09;;;;;;;4.38;2.90;;;12.30;99.90;;;;;;4954020;29;20332;-62
2021/12/31 04:49:37;;;;;;;3.13;2.65;;;12.30;99.90;;;;;;4954068;28;20704;-62
2021/12/31 04:52:07;;;;;;;5.80;3.00;;;12.20;99.90;;;;;;4954289;29;20290;-62
2021/12/31 04:54:35;;;;;;;6.53;3.47;;;12.20;99.90;;;;;;4954297;29;20282;-61
2021/12/31 04:57:03;;;;;;;6.63;3.53;;;12.20;99.90;;;;;;4954094;29;20287;-62
2021/12/31 04:59:31;;;;;;;2.78;2.50;;;12.10;99.90;;;;;;4954167;28;20223;-62
2021/12/31 05:01:59;;;;;;;3.17;2.80;;;12.00;99.90;;;;;;4953850;29;20219;-61
2021/12/31 05:04:27;;;;;;;7.68;3.75;;;12.10;99.90;;;;;;4937806;29;20685;-62
2021/12/31 05:06:55;;;;;;;3.95;2.85;;;12.00;99.90;;;;;;4934695;29;20220;-62
2021/12/31 05:09:25;;;;;;;3.17;2.88;;;12.00;99.90;;;;;;4930617;29;20288;-62
2021/12/31 05:11:53;;;;;;;5.55;3.22;;;12.00;99.90;;;;;;4932316;29;20287;-62
2021/12/31 05:14:21;;;;;;;3.70;2.85;;;11.80;99.90;;;;;;4940117;29;20291;-62
2021/12/31 05:16:50;;;;;;;6.25;3.45;;;11.80;99.90;;;;;;4934622;29;20203;-62
2021/12/31 05:19:18;;;;;;;5.53;2.95;;;11.80;99.90;;;;;;4934609;29;20303;-62
2021/12/31 05:21:46;;;;;;;3.33;2.80;;;11.80;99.90;;;;;;4934533;29;20691;-62
2021/12/31 05:24:14;;;;;;;8.07;2.90;;;11.80;99.90;;;;;;4934496;29;20204;-62
2021/12/31 05:26:43;;;;;;;4.35;2.50;;;11.80;99.90;;;;;;4934513;29;20275;-65
2021/12/31 05:29:11;;;;;;;5.75;2.67;;;11.80;99.90;;;;;;4934673;29;20220;-62
2021/12/31 05:31:39;;;;;;;3.58;2.28;;;11.90;99.90;;;;;;4934877;29;20731;-63
2021/12/31 05:34:07;;;;;;;4.30;3.20;;;11.80;99.90;;;;;;4934278;29;20224;-63
2021/12/31 05:36:34;;;;;;;3.05;2.58;;;11.80;99.90;;;;;;4934537;29;20239;-62
2021/12/31 05:39:02;;;;;;;6.20;3.05;;;11.80;99.90;;;;;;4934453;29;20271;-63
2021/12/31 05:41:32;;;;;;;5.85;3.00;;;11.80;99.90;;;;;;4929210;29;20295;-62
2021/12/31 05:44:01;;;;;;;5.57;2.85;;;11.80;99.90;;;;;;4942381;29;20208;-63
2021/12/31 05:46:29;;;;;;;6.60;2.85;;;11.90;99.90;;;;;;4931834;29;20327;-62
2021/12/31 05:48:57;;;;;;;3.90;2.90;;;11.80;99.90;;;;;;4934546;29;20593;-62
2021/12/31 05:51:27;;;;;;;4.70;2.72;;;11.80;99.90;;;;;;4934571;29;20268;-62
2021/12/31 05:53:55;;;;;;;4.25;3.08;;;11.70;99.90;;;;;;4934219;29;20200;-62
2021/12/31 05:56:23;;;;;;;4.50;2.72;;;11.80;99.90;;;;;;4935090;29;20247;-62
2021/12/31 05:58:51;;;;;;;6.03;3.10;;;11.80;99.90;;;;;;4934695;29;20273;-61
2021/12/31 06:01:20;;;;;;;3.28;2.80;;;11.80;99.90;;;;;;4929645;29;20589;-62
2021/12/31 06:03:48;;;;;;;4.03;2.40;;;11.80;99.90;;;;;;4933655;29;20660;-62
2021/12/31 06:06:16;;;;;;;4.32;2.53;;;11.90;99.90;;;;;;4933801;29;20255;-63
2021/12/31 06:08:44;;;;;;;3.72;2.10;;;11.80;99.90;;;;;;4933642;29;20731;-62
2021/12/31 06:11:12;;;;;;;3.67;2.75;;;11.80;99.90;;;;;;4934171;29;20200;-62
2021/12/31 06:13:40;;;;;;;6.65;3.17;;;11.80;99.90;;;;;;4933825;29;20228;-62
2021/12/31 06:16:08;;;;;;;3.83;3.17;;;11.80;99.90;;;;;;4929451;29;20635;-61
2021/12/31 06:18:39;;;;;;;3.30;2.67;;;11.80;99.90;;;;;;4924892;29;20579;-63
2021/12/31 06:21:08;;;;;;;4.13;2.63;;;11.80;99.90;;;;;;4934089;29;20204;-63
2021/12/31 06:23:36;;;;;;;6.53;2.53;;;11.70;99.90;;;;;;4933802;29;20700;-63
2021/12/31 06:26:24;;;;;;;4.18;2.95;;;11.70;99.90;;;;;;4933818;29;20306;-62
2021/12/31 06:28:51;;;;;;;4.07;2.67;;;11.70;99.90;;;;;;4933938;29;20246;-63
2021/12/31 06:31:19;;;;;;;6.55;3.15;;;11.70;99.90;;;;;;4941888;29;20291;-63
2021/12/31 06:33:49;;;;;;;4.50;2.80;;;11.60;99.90;;;;;;4950775;29;20215;-63
2021/12/31 06:36:17;;;;;;;3.97;3.00;;;11.60;99.90;;;;;;4953799;28;20227;-65
2021/12/31 06:38:44;;;;;;;4.75;3.22;;;11.50;99.90;;;;;;4956954;28;20305;-63
2021/12/31 06:41:14;;;;;;;4.13;2.80;;;11.50;99.90;;;;;;4956596;29;20286;-63
2021/12/31 06:43:41;;;;;;;7.47;3.00;;;11.50;99.90;;;;;;4956638;29;20229;-63
2021/12/31 06:46:09;;;;;;;3.80;2.70;;;11.50;99.90;;;;;;4958273;29;20246;-61
2021/12/31 06:48:37;;;;;;;3.95;2.78;;;11.40;99.90;;;;;;4956559;28;20222;-63
2021/12/31 06:51:06;;;;;;;7.10;3.45;;;11.40;99.90;;;;;;4957479;29;20237;-63
2021/12/31 06:53:34;;;;;;;4.10;3.17;;;11.30;99.90;;;;;;4956759;29;20202;-63
2021/12/31 06:56:02;;;;;;;4.35;3.08;;;11.30;99.90;;;;;;4944283;29;20290;-63
2021/12/31 06:58:30;;;;;;;9.63;4.00;;;11.20;99.90;;;;;;4937805;29;20235;-63
2021/12/31 07:00:57;;;;;;;4.43;3.25;;;11.20;99.90;;;;;;4945844;29;20388;-63
2021/12/31 07:03:25;;;;;;;6.55;3.70;;;11.20;99.90;;;;;;4951247;29;20953;-63
2021/12/31 07:05:53;;;;;;;4.10;3.60;;;11.20;99.90;;;;;;4955892;29;20279;-63
2021/12/31 07:08:26;;;;;;;6.60;3.92;;;11.10;99.90;;;;;;4956105;28;20661;-62
2021/12/31 07:10:54;;;;;;;7.70;4.22;;;11.10;99.90;;;;;;4966348;23;20240;-64
2021/12/31 07:13:22;;;;;;;4.55;4.10;;;11.00;99.90;;;;;;4944674;28;20719;-64
2021/12/31 07:15:51;;;;;;;5.97;4.07;;;11.00;99.90;;;;;;4970300;28;20211;-64
2021/12/31 07:18:20;;;;;;;4.28;3.80;;;11.00;99.90;;;;;;4952126;28;20204;-64
2021/12/31 07:20:48;;;;;;;6.57;4.45;;;10.80;99.90;;;;;;4935556;28;20248;-63
2021/12/31 07:23:18;;;;;;;5.60;4.35;;;10.80;99.90;;;;;;4926220;29;20482;-64
2021/12/31 07:25:48;;;;;;;5.60;4.28;;;10.80;99.90;;;;;;4939232;29;20270;-64
2021/12/31 07:28:16;;;;;;;8.38;5.18;;;10.70;99.90;;;;;;4931560;29;20846;-64
2021/12/31 07:30:46;;;;;;;9.02;4.95;;;10.60;99.90;;;;;;4932537;29;20259;-65
2021/12/31 07:33:18;;;;;;;5.75;4.53;;;10.60;99.90;;;;;;4935362;29;20278;-64
2021/12/31 07:35:46;;;;;;;8.35;5.32;;;10.60;99.90;;;;;;4942489;29;20246;-63
2021/12/31 07:38:20;;;;;;;6.70;4.70;;;10.60;99.90;;;;;;4950442;29;20274;-63
2021/12/31 07:40:51;;;;;;;5.43;4.25;;;10.50;99.90;;;;;;4942848;28;20223;-63
2021/12/31 07:43:21;;;;;;;8.30;5.00;;;10.50;99.90;;;;;;4929282;29;20238;-63
2021/12/31 07:45:49;;;;;;;6.22;4.22;;;10.50;99.90;;;;;;4942594;29;20238;-62
2021/12/31 07:48:17;;;;;;;10.13;4.40;;;10.50;99.90;;;;;;4949478;28;20262;-63
2021/12/31 07:50:45;;;;;;;7.65;4.50;;;10.80;99.90;;;;;;4930902;29;20307;-64
2021/12/31 07:53:13;;;;;;;6.25;3.90;;;10.60;99.90;;;;;;4935026;29;20234;-64
2021/12/31 07:55:42;;;;;;;4.65;4.10;;;10.70;99.90;;;;;;4942059;29;20204;-63
2021/12/31 07:58:11;;;;;;;8.43;4.80;;;10.70;99.90;;;;;;4950187;29;20274;-64
2021/12/31 08:00:39;;;;;;;7.03;5.05;;;10.90;99.90;;;;;;4941248;28;20275;-64
2021/12/31 08:03:07;;;;;;;6.78;3.97;;;11.00;99.90;;;;;;4934771;29;20219;-64
2021/12/31 08:05:35;;;;;;;8.32;4.82;;;11.20;99.90;;;;;;4935255;29;20212;-63
2021/12/31 08:08:05;;;;;;;4.60;4.05;;;11.30;99.90;;;;;;4930275;29;20316;-66
2021/12/31 08:10:33;;;;;;;6.55;4.65;;;11.50;99.90;;;;;;4926574;29;20236;-64
2021/12/31 08:13:23;;;;;;;6.43;3.83;;;11.60;99.90;;;;;;4923493;29;20218;-65
2021/12/31 08:15:51;;;;;;;9.07;4.10;;;11.80;99.90;;;;;;4932680;29;20200;-65
2021/12/31 08:18:19;;;;;;;7.53;4.32;;;11.90;99.90;;;;;;4928881;29;20203;-65
2021/12/31 08:20:47;;;;;;;5.18;4.10;;;12.00;99.90;;;;;;4918728;29;20268;-65
2021/12/31 08:23:14;;;;;;;7.57;3.47;;;12.10;99.90;;;;;;4929907;29;20204;-65
2021/12/31 08:25:43;;;;;;;13.30;3.30;;;12.40;99.90;;;;;;4936784;29;20276;-65
2021/12/31 08:28:11;;;;;;;5.60;2.67;;;12.90;99.90;;;;;;4927860;29;20251;-65
2021/12/31 08:30:40;;;;;;;7.43;2.80;;;13.60;99.90;;;;;;4933560;29;20272;-64
2021/12/31 08:33:08;;;;;;;8.30;2.90;;;14.10;99.90;;;;;;4939315;29;20727;-65
2021/12/31 08:35:36;;;;;;;4.38;2.88;;;14.50;99.90;;;;;;4935376;29;20207;-65
2021/12/31 08:38:04;;;;;;;5.10;2.95;;;14.90;99.90;;;;;;4922322;29;20672;-65
2021/12/31 08:40:32;;;;;;;5.35;2.67;;;15.10;99.90;;;;;;4918747;29;20252;-65
2021/12/31 08:43:00;;;;;;;4.18;2.35;;;15.20;99.90;;;;;;4935146;29;20204;-65
2021/12/31 08:45:31;;;;;;;2.95;2.50;;;15.50;99.90;;;;;;4938054;29;20698;-66
2021/12/31 08:48:01;;;;;;;4.03;3.15;;;15.80;99.90;;;;;;4930109;29;20219;-65
2021/12/31 08:50:29;;;;;;;4.20;2.85;;;15.60;99.90;;;;;;4929771;29;20256;-64
2021/12/31 08:52:57;;;;;;;4.47;2.55;;;15.60;99.90;;;;;;4932830;29;20205;-65
2021/12/31 08:55:25;;;;;;;4.65;2.47;;;15.70;99.90;;;;;;4940790;29;20687;-66
2021/12/31 08:57:53;;;;;;;5.78;3.10;;;15.80;99.90;;;;;;4929670;29;20268;-65
2021/12/31 09:00:21;;;;;;;6.32;3.20;;;15.90;99.90;;;;;;4935121;29;20227;-65
2021/12/31 09:02:50;;;;;;;6.68;3.53;;;15.70;99.90;;;;;;4930082;29;20243;-65
2021/12/31 09:05:22;;;;;;;8.20;3.95;;;15.50;99.90;;;;;;4929610;29;20200;-64
2021/12/31 09:07:50;;;;;;;4.82;3.03;;;15.70;99.90;;;;;;4929432;29;20248;-66
2021/12/31 09:10:20;;;;;;;7.05;3.35;;;15.60;99.90;;;;;;4929455;29;20254;-65
2021/12/31 09:12:50;;;;;;;3.92;3.60;;;15.40;99.90;;;;;;4930950;29;20237;-65
2021/12/31 09:15:18;;;;;;;5.25;3.30;;;15.30;99.90;;;;;;4937207;29;20898;-65
2021/12/31 09:17:47;;;;;;;6.38;3.42;;;15.50;99.90;;;;;;4948968;29;20227;-64
2021/12/31 09:20:15;;;;;;;5.22;3.17;;;15.30;99.90;;;;;;4939723;28;20834;-64
2021/12/31 09:22:45;;;;;;;4.00;3.30;;;15.20;99.90;;;;;;4930380;29;20563;-65
2021/12/31 09:25:13;;;;;;;5.10;3.20;;;15.00;99.90;;;;;;4940564;29;20238;-65
2021/12/31 09:27:42;;;;;;;4.55;3.35;;;15.00;99.90;;;;;;4934094;29;20605;-65
2021/12/31 09:30:11;;;;;;;6.68;4.07;;;15.20;99.90;;;;;;4928812;29;20228;-65
2021/12/31 09:32:39;;;;;;;3.90;3.40;;;15.60;99.90;;;;;;4920601;29;20961;-65
2021/12/31 09:35:08;;;;;;;6.88;3.97;;;16.00;99.90;;;;;;4934824;29;20300;-65
2021/12/31 09:37:36;;;;;;;4.00;3.33;;;16.20;99.90;;;;;;4910625;29;20201;-64
2021/12/31 09:40:06;;;;;;;6.70;3.72;;;16.10;99.90;;;;;;4910326;29;20311;-65
2021/12/31 09:42:36;;;;;;;3.97;2.95;;;16.00;99.90;;;;;;4920171;29;20243;-65
2021/12/31 09:45:05;;;;;;;3.80;3.05;;;15.80;99.90;;;;;;4929199;29;20250;-64
2021/12/31 09:47:33;;;;;;;5.78;3.95;;;16.10;99.90;;;;;;4929107;29;20574;-65
2021/12/31 09:50:00;;;;;;;5.03;3.22;;;16.30;99.90;;;;;;4929403;29;20254;-64
2021/12/31 09:52:31;;;;;;;5.55;3.58;;;16.00;99.90;;;;;;4924640;29;20219;-65
2021/12/31 09:54:59;;;;;;;5.18;3.67;;;15.80;99.90;;;;;;4938987;29;20231;-65
2021/12/31 09:57:28;;;;;;;4.30;3.10;;;15.70;99.90;;;;;;4935364;29;20205;-65
2021/12/31 10:00:01;;;;;;;5.05;3.20;;;15.50;99.90;;;;;;4928586;29;20318;-64
2021/12/31 10:02:32;;;;;;;4.22;3.05;;;15.50;99.90;;;;;;4918052;29;20208;-65
2021/12/31 10:05:01;;;;;;;7.30;3.65;;;15.20;99.90;;;;;;4937313;29;20200;-64
2021/12/31 10:07:30;;;;;;;3.92;3.53;;;15.20;99.90;;;;;;4927399;29;20203;-64
2021/12/31 10:10:10;;;;;;;7.68;3.72;;;15.20;99.90;;;;;;4928873;29;20239;-64
2021/12/31 10:12:48;;;;;;;8.85;4.22;;;15.00;99.90;;;;;;4925787;29;20219;-65
2021/12/31 10:15:17;;;;;;;5.03;3.60;;;14.90;99.90;;;;;;4934499;29;20203;-64
2021/12/31 10:17:46;;;;;;;4.18;3.33;;;15.00;99.90;;;;;;4918743;29;20292;-64
2021/12/31 10:20:14;;;;;;;3.13;2.80;;;15.30;99.90;;;;;;4914041;29;20240;-64
2021/12/31 10:22:42;;;;;;;7.47;3.03;;;15.70;99.90;;;;;;4917003;29;20263;-66
2021/12/31 10:25:18;;;;;;;3.58;2.17;;;16.10;99.90;;;;;;4943632;29;20900;-64
2021/12/31 10:27:49;;;;;;;6.85;3.00;;;16.40;99.90;;;;;;4929605;29;20207;-64
2021/12/31 10:30:22;;;;;;;4.40;3.20;;;16.60;99.90;;;;;;4937636;29;20239;-64
2021/12/31 10:32:50;;;;;;;6.40;2.25;;;16.90;99.90;;;;;;4926095;29;20228;-64
2021/12/31 10:35:20;;;;;;;5.43;2.70;;;16.50;99.90;;;;;;4943668;29;20209;-64
2021/12/31 10:37:50;;;;;;;5.10;2.97;;;16.30;99.90;;;;;;4952014;29;20254;-64
2021/12/31 10:40:30;;;;;;;3.35;2.92;;;15.80;99.90;;;;;;4931488;29;20808;-64
2021/12/31 10:43:11;;;;;;;6.13;3.63;;;15.90;99.90;;;;;;4927404;29;20985;-64
2021/12/31 10:45:40;;;;;;;6.90;3.13;;;15.60;99.90;;;;;;4943232;28;20286;-64
2021/12/31 10:48:10;;;;;;;4.78;3.65;;;15.40;99.90;;;;;;4951309;29;20266;-62
2021/12/31 10:50:38;;;;;;;5.25;4.30;;;15.00;99.90;;;;;;4944692;28;20247;-64
2021/12/31 10:53:11;;;;;;;5.68;3.75;;;14.70;99.90;;;;;;4930272;29;20299;-64
2021/12/31 10:55:40;;;;;;;4.70;3.97;;;14.40;99.90;;;;;;4925827;29;20204;-63
2021/12/31 10:58:11;;;;;;;4.20;3.80;;;14.10;99.90;;;;;;4932016;29;20315;-64
2021/12/31 11:00:41;;;;;;;6.50;4.18;;;13.80;99.90;;;;;;4939912;29;20317;-64
2021/12/31 11:03:10;;;;;;;3.78;3.13;;;13.80;99.90;;;;;;4926158;29;20212;-64
2021/12/31 11:05:38;;;;;;;4.32;3.70;;;13.80;99.90;;;;;;4939882;29;20212;-64
2021/12/31 11:08:08;;;;;;;3.85;3.30;;;13.90;99.90;;;;;;4932168;29;20259;-63
2021/12/31 11:10:40;;;;;;;3.78;2.95;;;13.80;99.90;;;;;;4931627;29;20243;-64
2021/12/31 11:13:13;;;;;;;4.80;3.58;;;13.80;99.90;;;;;;4929819;29;20246;-64
2021/12/31 11:15:42;;;;;;;3.53;3.22;;;13.80;99.90;;;;;;4935646;29;20294;-64
2021/12/31 11:18:11;;;;;;;6.18;3.53;;;13.70;99.90;;;;;;4950987;28;20707;-64
2021/12/31 11:20:41;;;;;;;3.25;2.70;;;13.70;99.90;;;;;;4943767;28;20228;-63
2021/12/31 11:23:09;;;;;;;4.97;3.20;;;13.60;99.90;;;;;;4924817;29;20672;-64
2021/12/31 11:25:53;;;;;;;3.60;2.97;;;13.40;99.90;;;;;;4942998;28;20250;-64
2021/12/31 11:28:27;;;;;;;3.85;3.55;;;13.30;99.90;;;;;;4950799;29;20238;-64
2021/12/31 11:30:56;;;;;;;5.85;3.63;;;13.30;99.90;;;;;;4945183;28;20916;-63
2021/12/31 11:33:30;;;;;;;3.53;3.00;;;13.20;99.90;;;;;;4931820;29;20584;-64
2021/12/31 11:36:00;;;;;;;3.63;3.33;;;13.10;99.90;;;;;;4933543;29;20283;-65
2021/12/31 11:38:47;;;;;;;4.03;3.35;;;12.90;99.90;;;;;;4931513;29;20196;-64
2021/12/31 11:41:19;;;;;;;7.15;3.75;;;13.00;99.90;;;;;;4930986;29;20580;-64
2021/12/31 11:44:06;;;;;;;3.78;3.47;;;13.00;99.90;;;;;;4935216;29;20932;-64
2021/12/31 11:46:37;;;;;;;4.50;3.05;;;13.00;99.90;;;;;;4931967;29;20255;-64
2021/12/31 11:49:10;;;;;;;3.17;2.97;;;12.90;99.90;;;;;;4930202;29;20324;-63
2021/12/31 11:51:57;;;;;;;4.55;3.58;;;13.00;99.90;;;;;;4930910;29;20227;-64
2021/12/31 11:54:25;;;;;;;7.53;3.80;;;13.00;99.90;;;;;;4933973;29;20639;-64
2021/12/31 11:57:05;;;;;;;3.50;2.58;;;13.00;99.90;;;;;;4947734;29;20684;-63
2021/12/31 11:59:58;;;;;;;3.80;3.30;;;13.10;99.90;;;;;;4947690;28;20301;-64
2021/12/31 12:02:35;;;;;;;4.80;3.30;;;12.90;99.90;;;;;;4923833;29;20219;-64
2021/12/31 12:05:17;;;;;;;3.47;3.17;;;12.90;99.90;;;;;;4930681;29;20682;-63
2021/12/31 12:07:52;;;;;;;3.80;2.45;;;12.90;99.90;;;;;;4930542;29;20287;-65
2021/12/31 12:10:29;;;;;;;3.75;3.45;;;13.00;99.90;;;;;;4913474;29;20319;-65
2021/12/31 12:13:13;;;;;;;5.07;3.63;;;13.10;99.90;;;;;;4920566;29;20283;-64
2021/12/31 12:15:42;;;;;;;3.60;2.40;;;13.10;99.90;;;;;;4922257;29;20701;-64
2021/12/31 12:18:12;;;;;;;3.10;2.90;;;13.20;99.90;;;;;;4930181;29;20801;-64
2021/12/31 12:20:42;;;;;;;3.75;3.03;;;13.20;99.90;;;;;;4929529;29;20239;-63
2021/12/31 12:23:23;;;;;;;3.10;2.53;;;13.20;99.90;;;;;;4928180;29;20286;-64
2021/12/31 12:25:51;;;;;;;3.25;2.95;;;13.10;99.90;;;;;;4932317;29;20299;-64
2021/12/31 12:28:20;;;;;;;3.67;2.83;;;13.10;99.90;;;;;;4930758;29;20704;-63
2021/12/31 12:31:04;;;;;;;3.05;2.75;;;13.10;99.90;;;;;;4938219;29;20329;-64
2021/12/31 12:33:32;;;;;;;2.97;2.78;;;13.20;99.90;;;;;;4931522;28;20648;-64
2021/12/31 12:36:01;;;;;;;2.75;2.42;;;13.20;99.90;;;;;;4941297;29;20235;-64
2021/12/31 12:38:33;;;;;;;5.70;3.15;;;13.30;99.90;;;;;;4949730;29;20258;-64
2021/12/31 12:41:03;;;;;;;4.05;3.13;;;13.40;99.90;;;;;;4949693;28;21109;-64
2021/12/31 12:43:33;;;;;;;3.67;3.28;;;13.40;99.90;;;;;;4923651;29;20228;-64
2021/12/31 12:46:04;;;;;;;3.55;3.25;;;13.30;99.90;;;;;;4933975;29;20290;-64
2021/12/31 12:48:35;;;;;;;3.20;2.90;;;13.30;99.90;;;;;;4930187;29;20223;-64
2021/12/31 12:51:06;;;;;;;4.35;3.00;;;13.20;99.90;;;;;;4928485;29;20232;-63
2021/12/31 12:53:36;;;;;;;8.45;3.55;;;13.10;99.90;;;;;;4923483;29;20307;-64
2021/12/31 12:56:09;;;;;;;2.42;2.22;;;12.90;99.90;;;;;;4941234;29;20211;-64
2021/12/31 12:58:39;;;;;;;4.22;2.58;;;12.90;99.90;;;;;;4949207;29;20309;-64
2021/12/31 13:01:10;;;;;;;4.03;3.17;;;12.80;99.90;;;;;;4941773;28;20251;-64